Time;durP1;ratioP1;P1;durP2;ratioP2;P2;SDS_P1;SDS_P2;PMS_P1;PMS_P2;Temp;Humidity;BMP_temperature;BMP_pressure;BME280_temperature;BME280_humidity;BME280_pressure;Samples;Min_cycle;Max_cycle;Signal;HPM_P1;HPM_P2
2022/02/05 00:02:16;;;;;;;1.40;1.23;;;6.80;99.90;;;;;;5044542;28;20399;-72
2022/02/05 00:04:43;;;;;;;1.30;1.20;;;6.90;99.90;;;;;;5044141;28;20401;-73
2022/02/05 00:07:10;;;;;;;1.87;1.30;;;6.90;99.90;;;;;;5025855;28;20521;-72
2022/02/05 00:33:16;;;;;;;3.63;1.20;;;6.30;99.90;;;;;;5043798;28;20233;-72
2022/02/05 00:44:13;;;;;;;5.17;3.20;;;6.10;99.90;;;;;;5044083;28;20975;-72
2022/02/05 00:46:41;;;;;;;2.70;1.57;;;6.20;99.90;;;;;;5043423;28;20409;-72
2022/02/05 00:49:06;;;;;;;2.63;1.43;;;6.00;99.90;;;;;;5025817;28;20550;-73
2022/02/05 00:51:38;;;;;;;1.80;1.50;;;5.80;99.90;;;;;;5043887;28;20405;-73
2022/02/05 00:59:15;;;;;;;1.70;1.50;;;5.50;99.90;;;;;;5043198;28;20644;-72
2022/02/05 01:01:41;;;;;;;1.87;1.33;;;5.70;99.90;;;;;;5046408;28;20492;-72
2022/02/05 01:04:07;;;;;;;3.33;1.60;;;5.60;99.90;;;;;;5029699;28;20417;-71
2022/02/05 01:06:33;;;;;;;3.90;1.93;;;5.60;99.90;;;;;;5047507;28;20404;-72
2022/02/05 01:09:03;;;;;;;2.20;1.00;;;5.60;99.90;;;;;;5047278;28;20194;-72
2022/02/05 01:11:29;;;;;;;1.53;1.43;;;5.60;99.90;;;;;;5029547;28;20551;-71
2022/02/05 01:13:57;;;;;;;4.50;1.80;;;5.50;99.90;;;;;;5047236;28;20449;-72
2022/02/05 01:16:32;;;;;;;1.63;1.53;;;5.50;99.90;;;;;;5029393;28;20174;-71
2022/02/05 01:18:58;;;;;;;3.10;1.43;;;5.40;99.90;;;;;;5028826;28;20424;-72
2022/02/05 01:21:58;;;;;;;3.63;1.63;;;5.20;99.90;;;;;;5029301;28;20430;-72
2022/02/05 01:24:17;;;;;;;2.53;1.40;;;5.30;99.90;;;;;;5043965;28;20179;-72
2022/02/05 01:26:50;;;;;;;3.60;1.40;;;5.40;99.90;;;;;;5047285;28;20440;-73
2022/02/05 01:29:28;;;;;;;2.40;1.20;;;5.50;99.90;;;;;;5046957;28;20409;-71
2022/02/05 01:31:58;;;;;;;4.03;1.60;;;5.30;99.90;;;;;;5029338;28;20420;-71
2022/02/05 01:34:32;;;;;;;2.40;1.53;;;5.60;99.90;;;;;;5047100;28;20496;-71
2022/02/05 01:53:09;;;;;;;5.33;1.87;;;5.20;99.90;;;;;;5047019;28;20498;-74
2022/02/05 01:58:13;;;;;;;2.43;1.93;;;5.10;99.90;;;;;;5046640;28;20441;-70
2022/02/05 02:11:44;;;;;;;3.83;1.30;;;5.30;99.90;;;;;;5046601;28;20531;-70
2022/02/05 02:25:06;;;;;;;2.50;1.70;;;4.80;99.90;;;;;;5016704;28;20503;-73
2022/02/05 02:27:45;;;;;;;2.50;2.10;;;4.70;99.90;;;;;;5045879;28;20489;-71
2022/02/05 02:30:25;;;;;;;2.60;1.40;;;4.50;99.90;;;;;;5045471;28;20401;-72
2022/02/05 02:33:00;;;;;;;2.27;1.70;;;4.60;99.90;;;;;;5027677;28;20506;-71
2022/02/05 02:35:28;;;;;;;4.00;2.00;;;4.60;99.90;;;;;;5045542;28;20405;-70
2022/02/05 02:40:38;;;;;;;2.00;1.70;;;4.70;99.90;;;;;;5045695;28;20421;-71
2022/02/05 02:43:10;;;;;;;3.30;1.90;;;4.70;99.90;;;;;;5045670;28;20699;-69
2022/02/05 02:45:36;;;;;;;3.90;2.23;;;4.60;99.90;;;;;;5045430;28;20416;-71
2022/02/05 02:48:02;;;;;;;2.77;1.80;;;4.50;99.90;;;;;;5045577;28;20441;-72
2022/02/05 02:56:25;;;;;;;2.00;1.67;;;4.60;99.90;;;;;;5045586;28;20194;-72
2022/02/05 02:58:44;;;;;;;3.70;2.20;;;4.60;99.90;;;;;;5045473;28;20440;-71
2022/02/05 03:01:17;;;;;;;3.80;1.90;;;4.70;99.90;;;;;;5044991;28;20519;-71
2022/02/05 03:03:43;;;;;;;2.60;2.07;;;4.60;99.90;;;;;;5045332;28;20183;-69
2022/02/05 03:06:08;;;;;;;3.90;2.13;;;4.60;99.90;;;;;;5043899;28;21614;-71
2022/02/05 03:08:34;;;;;;;3.87;2.47;;;4.70;99.90;;;;;;5045100;28;20226;-72
2022/02/05 03:10:59;;;;;;;4.10;2.17;;;4.70;99.90;;;;;;5045191;28;20194;-72
2022/02/05 03:13:25;;;;;;;5.83;2.47;;;4.80;99.90;;;;;;5044891;28;20259;-70
2022/02/05 03:15:52;;;;;;;3.03;2.60;;;4.50;99.90;;;;;;5044356;28;20183;-72
2022/02/05 03:18:44;;;;;;;3.77;2.00;;;4.50;99.90;;;;;;5045068;28;20222;-72
2022/02/05 03:21:10;;;;;;;5.90;2.30;;;4.50;99.90;;;;;;5044851;28;20894;-71
2022/02/05 03:23:35;;;;;;;4.40;2.10;;;4.50;99.90;;;;;;5044144;28;20487;-71
2022/02/05 03:26:01;;;;;;;4.83;2.30;;;4.40;99.90;;;;;;5044637;28;20188;-70
2022/02/05 03:28:27;;;;;;;3.33;2.20;;;4.30;99.90;;;;;;5045087;28;20226;-71
2022/02/05 03:30:53;;;;;;;4.20;2.37;;;4.40;99.90;;;;;;5044411;28;20186;-72
2022/02/05 03:33:19;;;;;;;3.40;2.03;;;4.60;99.90;;;;;;5044893;28;20551;-71
2022/02/05 03:35:44;;;;;;;3.00;2.10;;;4.70;99.90;;;;;;5026675;28;20752;-70
2022/02/05 03:38:10;;;;;;;4.60;2.47;;;4.50;99.90;;;;;;5044540;28;20451;-71
2022/02/05 03:40:35;;;;;;;5.13;2.80;;;4.40;99.90;;;;;;5026178;28;20266;-70
2022/02/05 03:43:01;;;;;;;2.57;2.17;;;4.60;99.90;;;;;;5044901;28;21316;-70
2022/02/05 03:45:27;;;;;;;4.73;2.47;;;4.50;99.90;;;;;;5026376;28;20182;-70
2022/02/05 03:47:53;;;;;;;5.73;2.97;;;4.30;99.90;;;;;;5044788;28;20203;-70
2022/02/05 03:50:19;;;;;;;3.10;2.40;;;4.20;99.90;;;;;;5044750;28;20193;-74
2022/02/05 03:52:45;;;;;;;13.03;3.50;;;4.30;99.90;;;;;;5044503;28;20182;-70
2022/02/05 03:55:11;;;;;;;5.83;2.73;;;4.30;99.90;;;;;;5026155;28;20428;-72
2022/02/05 03:57:37;;;;;;;4.67;2.93;;;4.30;99.90;;;;;;5025900;28;20436;-70
2022/02/05 04:00:08;;;;;;;5.00;3.00;;;4.30;99.90;;;;;;5026272;28;20833;-71
2022/02/05 04:02:35;;;;;;;3.10;2.27;;;4.40;99.90;;;;;;5044363;28;20167;-71
2022/02/05 04:05:00;;;;;;;4.23;2.33;;;4.40;99.90;;;;;;5044014;28;20485;-69
2022/02/05 04:07:29;;;;;;;4.23;2.87;;;4.40;99.90;;;;;;5044075;28;20507;-70
2022/02/05 04:09:59;;;;;;;3.93;2.60;;;4.40;99.90;;;;;;5043786;28;20465;-73
2022/02/05 04:17:54;;;;;;;4.77;2.73;;;4.40;99.90;;;;;;5044038;28;20447;-69
2022/02/05 04:20:19;;;;;;;4.53;2.73;;;4.40;99.90;;;;;;5044025;28;20409;-72
2022/02/05 04:22:45;;;;;;;4.30;2.40;;;4.30;99.90;;;;;;5044023;28;20206;-70
2022/02/05 04:25:11;;;;;;;3.40;2.30;;;4.40;99.90;;;;;;5044276;28;20179;-71
2022/02/05 04:27:37;;;;;;;5.33;2.13;;;4.40;99.90;;;;;;5043497;28;20205;-70
2022/02/05 04:30:04;;;;;;;7.23;3.20;;;4.40;99.90;;;;;;5043463;28;20416;-71
2022/02/05 04:32:30;;;;;;;3.33;2.40;;;4.50;99.90;;;;;;5042621;28;20512;-72
2022/02/05 04:34:56;;;;;;;3.20;2.67;;;4.60;99.90;;;;;;5043410;28;20504;-72
2022/02/05 04:37:24;;;;;;;6.33;2.73;;;4.60;99.90;;;;;;5043528;28;20281;-71
2022/02/05 04:40:04;;;;;;;3.37;2.10;;;4.70;99.90;;;;;;5043472;28;20175;-72
2022/02/05 04:42:42;;;;;;;6.00;2.47;;;4.60;99.90;;;;;;5025670;28;20558;-73
2022/02/05 04:50:33;;;;;;;5.33;2.33;;;4.90;99.90;;;;;;5043426;28;20551;-69
2022/02/05 04:56:54;;;;;;;2.20;2.00;;;5.10;99.90;;;;;;5043926;28;20397;-73
2022/02/05 05:02:10;;;;;;;2.90;2.60;;;4.90;99.90;;;;;;5043313;28;20484;-70
2022/02/05 05:11:49;;;;;;;3.03;2.30;;;5.20;99.90;;;;;;5043391;28;20490;-71
2022/02/05 05:19:58;;;;;;;4.10;3.20;;;5.30;99.90;;;;;;5043768;28;20792;-70
2022/02/05 05:22:17;;;;;;;6.73;3.30;;;5.30;99.90;;;;;;5040260;28;20420;-70
2022/02/05 05:24:43;;;;;;;3.43;2.93;;;5.50;99.90;;;;;;5043253;28;20439;-70
2022/02/05 05:27:09;;;;;;;5.73;2.23;;;5.50;99.90;;;;;;5025250;28;20186;-72
2022/02/05 05:29:35;;;;;;;2.30;2.07;;;5.40;99.90;;;;;;5042852;28;20487;-70
2022/02/05 05:32:00;;;;;;;6.40;2.70;;;5.50;99.90;;;;;;5042788;28;20964;-69
2022/02/05 05:34:26;;;;;;;5.03;2.27;;;5.50;99.90;;;;;;5042793;28;20734;-73
2022/02/05 05:36:55;;;;;;;3.60;2.37;;;5.60;99.90;;;;;;5042501;28;20180;-69
2022/02/05 05:39:20;;;;;;;7.13;2.67;;;5.60;99.90;;;;;;5042473;28;20206;-72
2022/02/05 05:41:46;;;;;;;3.83;2.03;;;5.40;99.90;;;;;;5024717;28;20470;-72
2022/02/05 05:47:14;;;;;;;2.90;2.23;;;5.40;99.90;;;;;;5044664;28;20181;-70
2022/02/05 05:52:19;;;;;;;3.43;2.10;;;5.40;99.90;;;;;;5046676;28;20450;-71
2022/02/05 05:54:44;;;;;;;2.60;2.37;;;5.60;99.90;;;;;;5046213;28;20448;-72
2022/02/05 05:57:11;;;;;;;3.20;2.20;;;5.70;99.90;;;;;;5028354;28;20452;-71
2022/02/05 05:59:41;;;;;;;3.60;2.40;;;5.70;99.90;;;;;;5046241;28;20542;-70
2022/02/05 06:02:08;;;;;;;5.17;2.70;;;5.80;99.90;;;;;;5046228;28;20417;-70
2022/02/05 06:04:33;;;;;;;3.70;2.50;;;5.70;99.90;;;;;;5046379;28;20944;-71
2022/02/05 06:06:59;;;;;;;7.83;2.20;;;5.80;99.90;;;;;;5045985;28;20413;-71
2022/02/05 06:09:25;;;;;;;3.80;3.50;;;5.80;99.90;;;;;;5045975;28;20289;-71
2022/02/05 06:11:50;;;;;;;2.70;2.50;;;5.40;99.90;;;;;;5028092;28;20617;-70
2022/02/05 06:14:21;;;;;;;3.40;2.80;;;5.30;99.90;;;;;;5045951;28;20386;-70
2022/02/05 06:16:54;;;;;;;3.80;2.60;;;5.50;99.90;;;;;;5046127;28;20195;-70
2022/02/05 06:19:21;;;;;;;4.40;2.37;;;5.50;99.90;;;;;;5046119;28;20429;-71
2022/02/05 06:21:47;;;;;;;3.07;2.10;;;5.60;99.90;;;;;;5045958;28;20409;-72
2022/02/05 06:24:13;;;;;;;4.87;2.87;;;5.60;99.90;;;;;;5046196;28;20417;-71
2022/02/05 06:26:38;;;;;;;3.50;2.67;;;5.60;99.90;;;;;;5046164;28;20936;-69
2022/02/05 06:29:04;;;;;;;6.30;3.10;;;5.40;99.90;;;;;;5045932;28;20248;-72
2022/02/05 06:31:29;;;;;;;3.40;2.77;;;5.40;99.90;;;;;;5045325;28;20604;-70
2022/02/05 06:33:55;;;;;;;8.07;2.97;;;5.40;99.90;;;;;;5045660;28;20218;-71
2022/02/05 06:36:21;;;;;;;2.90;2.20;;;5.40;99.90;;;;;;5045341;28;20181;-72
2022/02/05 06:38:47;;;;;;;5.57;2.97;;;5.50;99.90;;;;;;5045517;28;20681;-71
2022/02/05 06:41:13;;;;;;;4.10;2.50;;;5.50;99.90;;;;;;5045554;28;20194;-71
2022/02/05 06:43:38;;;;;;;5.50;2.90;;;5.20;99.90;;;;;;5045397;28;20456;-70
2022/02/05 06:46:04;;;;;;;4.90;3.17;;;5.40;99.90;;;;;;5044953;28;20989;-71
2022/02/05 06:48:29;;;;;;;8.83;2.90;;;5.50;99.90;;;;;;5045235;28;20199;-68
2022/02/05 06:50:55;;;;;;;5.17;3.00;;;5.60;99.90;;;;;;5045281;28;20916;-70
2022/02/05 06:53:21;;;;;;;3.57;2.87;;;5.70;99.90;;;;;;5045015;28;20208;-70
2022/02/05 06:55:46;;;;;;;3.07;2.70;;;5.60;99.90;;;;;;5045400;28;20187;-71
2022/02/05 06:58:12;;;;;;;3.33;2.70;;;5.60;99.90;;;;;;5043825;28;20199;-69
2022/02/05 07:00:38;;;;;;;5.07;2.70;;;5.70;99.90;;;;;;5026903;28;20232;-73
2022/02/05 07:03:04;;;;;;;3.57;2.80;;;5.70;99.90;;;;;;5045038;28;20186;-71
2022/02/05 07:05:30;;;;;;;6.50;3.00;;;5.80;99.90;;;;;;5044974;28;20405;-72
2022/02/05 07:07:56;;;;;;;4.90;3.03;;;5.80;99.90;;;;;;5045062;28;20202;-71
2022/02/05 07:10:22;;;;;;;2.83;2.30;;;5.70;99.90;;;;;;5044960;28;20936;-70
2022/02/05 07:13:33;;;;;;;4.37;2.10;;;5.70;99.90;;;;;;5045338;28;20417;-71
2022/02/05 07:15:38;;;;;;;6.33;2.57;;;5.50;99.90;;;;;;5037110;28;20254;-70
2022/02/05 07:31:01;;;;;;;5.43;2.40;;;5.80;99.90;;;;;;5044956;28;21004;-70
2022/02/05 07:33:27;;;;;;;6.87;2.97;;;5.80;99.90;;;;;;5044845;28;20831;-71
2022/02/05 07:35:53;;;;;;;3.57;2.57;;;5.80;99.90;;;;;;5044363;28;20443;-69
2022/02/05 07:38:19;;;;;;;3.00;2.70;;;5.50;99.90;;;;;;5026433;28;20467;-71
2022/02/05 07:40:45;;;;;;;6.33;2.50;;;5.80;99.90;;;;;;5044902;28;20409;-71
2022/02/05 07:43:10;;;;;;;3.07;2.70;;;5.80;99.90;;;;;;5044470;28;20179;-71
2022/02/05 07:45:36;;;;;;;2.60;2.10;;;5.70;99.90;;;;;;5044128;28;20218;-70
2022/02/05 07:48:02;;;;;;;3.13;2.63;;;5.60;99.90;;;;;;5044411;28;20198;-68
2022/02/05 07:50:27;;;;;;;4.07;2.73;;;5.70;99.90;;;;;;5043961;28;20200;-70
2022/02/05 07:52:53;;;;;;;3.03;2.30;;;5.80;99.90;;;;;;5043888;28;20186;-72
2022/02/05 07:55:19;;;;;;;3.40;2.20;;;5.70;99.90;;;;;;5026175;28;20206;-70
2022/02/05 07:57:44;;;;;;;3.60;2.40;;;5.80;99.90;;;;;;5043911;28;21068;-70
2022/02/05 08:00:10;;;;;;;5.80;2.50;;;5.70;99.90;;;;;;5043724;28;20175;-70
2022/02/05 08:02:36;;;;;;;2.70;2.40;;;5.60;99.90;;;;;;5043926;28;20265;-70
2022/02/05 08:05:02;;;;;;;4.10;2.10;;;5.50;99.90;;;;;;5044027;28;20513;-72
2022/02/05 08:07:27;;;;;;;5.33;2.90;;;5.50;99.90;;;;;;5043986;28;20256;-72
2022/02/05 08:10:00;;;;;;;3.20;2.20;;;5.60;99.90;;;;;;5043716;28;20174;-72
2022/02/05 08:12:27;;;;;;;6.50;2.80;;;5.50;99.90;;;;;;5043731;28;20178;-70
2022/02/05 08:14:54;;;;;;;2.30;2.10;;;5.60;99.90;;;;;;5043290;28;20453;-71
2022/02/05 08:17:30;;;;;;;3.10;2.50;;;5.50;99.90;;;;;;5043814;28;20412;-70
2022/02/05 08:19:55;;;;;;;3.70;2.57;;;5.50;99.90;;;;;;5043470;28;20458;-69
2022/02/05 08:22:22;;;;;;;6.13;2.70;;;5.30;99.90;;;;;;5043452;28;20433;-71
2022/02/05 08:24:48;;;;;;;4.13;2.67;;;5.40;99.90;;;;;;5043548;28;20290;-70
2022/02/05 08:27:14;;;;;;;3.17;2.87;;;5.30;99.90;;;;;;5043670;28;20454;-72
2022/02/05 08:29:47;;;;;;;4.23;2.20;;;5.30;99.90;;;;;;5043869;28;20436;-71
2022/02/05 08:32:13;;;;;;;3.30;2.13;;;5.40;99.90;;;;;;5043843;28;20405;-71
2022/02/05 08:34:38;;;;;;;4.63;2.33;;;5.60;99.90;;;;;;5025703;28;20502;-71
2022/02/05 08:37:04;;;;;;;2.70;2.20;;;5.70;99.90;;;;;;5044019;28;20182;-71
2022/02/05 08:39:30;;;;;;;2.80;2.20;;;5.80;99.90;;;;;;5043698;28;20268;-71
2022/02/05 08:41:56;;;;;;;4.00;2.80;;;5.90;99.90;;;;;;5043653;28;20542;-71
2022/02/05 08:44:21;;;;;;;3.47;2.90;;;6.00;99.90;;;;;;5044102;28;20186;-72
2022/02/05 08:46:47;;;;;;;6.00;2.50;;;6.00;99.90;;;;;;5043386;28;21229;-70
2022/02/05 08:49:14;;;;;;;6.00;2.60;;;5.80;99.90;;;;;;5043616;28;20206;-71
2022/02/05 08:51:39;;;;;;;6.50;2.30;;;5.60;99.90;;;;;;5043259;28;20414;-69
2022/02/05 08:56:30;;;;;;;2.23;1.80;;;5.70;99.90;;;;;;5106085;22;20248;-72
2022/02/05 08:58:58;;;;;;;6.80;2.70;;;5.60;99.90;;;;;;5066609;28;20176;-74
2022/02/05 09:01:29;;;;;;;5.70;3.20;;;5.60;99.90;;;;;;5067047;28;20269;-73
2022/02/05 09:04:12;;;;;;;3.43;2.10;;;5.60;99.90;;;;;;5048307;28;20416;-72
2022/02/05 09:06:41;;;;;;;3.70;2.47;;;5.80;99.90;;;;;;5046145;28;20494;-76
2022/02/05 09:09:10;;;;;;;5.27;3.53;;;5.90;99.90;;;;;;5046015;28;20400;-72
2022/02/05 09:11:48;;;;;;;4.40;3.00;;;5.70;99.90;;;;;;5045503;28;20409;-73
2022/02/05 09:14:17;;;;;;;2.77;2.40;;;5.70;99.90;;;;;;5046035;28;20452;-73
2022/02/05 09:16:46;;;;;;;6.63;3.67;;;5.90;99.90;;;;;;5046109;28;20744;-73
2022/02/05 09:19:12;;;;;;;8.30;3.33;;;6.00;99.90;;;;;;5045840;28;20522;-73
2022/02/05 09:21:38;;;;;;;3.10;2.57;;;6.10;99.90;;;;;;5047040;28;20421;-72
2022/02/05 09:24:06;;;;;;;5.60;3.53;;;6.10;99.90;;;;;;5049862;28;20417;-72
2022/02/05 09:26:41;;;;;;;5.83;3.70;;;6.10;99.90;;;;;;5048205;28;20948;-72
2022/02/05 09:29:19;;;;;;;6.27;2.30;;;6.20;99.90;;;;;;5049451;28;20735;-72
2022/02/05 09:31:45;;;;;;;3.27;2.20;;;6.20;99.90;;;;;;5049835;28;20397;-73
2022/02/05 09:34:10;;;;;;;3.63;2.30;;;6.10;99.90;;;;;;5049659;28;20539;-72
2022/02/05 09:36:39;;;;;;;5.10;2.17;;;6.20;99.90;;;;;;5049756;28;20499;-73
2022/02/05 09:39:06;;;;;;;3.67;2.67;;;6.20;99.90;;;;;;5049366;28;20178;-72
2022/02/05 09:41:32;;;;;;;5.83;2.00;;;6.20;99.90;;;;;;5048631;28;20425;-74
2022/02/05 09:43:57;;;;;;;8.97;2.87;;;6.20;99.90;;;;;;5049739;28;20484;-74
2022/02/05 09:46:23;;;;;;;5.03;2.20;;;6.40;99.90;;;;;;5031712;28;20195;-75
2022/02/05 09:48:50;;;;;;;4.80;2.33;;;6.40;99.90;;;;;;5049960;28;20232;-75
2022/02/05 09:51:19;;;;;;;4.47;2.60;;;6.50;99.90;;;;;;5050447;28;20178;-74
2022/02/05 09:53:52;;;;;;;7.20;2.00;;;6.70;99.90;;;;;;5049416;28;21015;-73
2022/02/05 09:56:20;;;;;;;3.73;1.57;;;6.80;99.90;;;;;;5049537;28;20449;-74
2022/02/05 09:58:45;;;;;;;2.50;1.63;;;6.90;99.90;;;;;;5047926;28;20772;-73
2022/02/05 10:01:24;;;;;;;3.60;1.90;;;6.80;99.90;;;;;;5048637;28;20405;-71
2022/02/05 10:03:51;;;;;;;2.70;1.63;;;6.80;99.90;;;;;;5047876;28;20298;-72
2022/02/05 10:06:23;;;;;;;5.60;2.80;;;7.00;99.90;;;;;;5047379;28;20483;-73
2022/02/05 10:09:00;;;;;;;3.37;2.47;;;7.00;99.90;;;;;;5047453;28;20399;-79
2022/02/05 10:11:30;;;;;;;3.50;2.00;;;7.10;99.90;;;;;;5047681;28;20423;-75
2022/02/05 10:14:11;;;;;;;3.60;2.07;;;7.10;99.90;;;;;;5029577;28;20977;-74
2022/02/05 10:16:37;;;;;;;3.07;1.87;;;7.10;99.90;;;;;;5046133;28;20418;-74
2022/02/05 10:19:03;;;;;;;2.90;1.30;;;7.10;99.90;;;;;;5046548;28;20411;-75
2022/02/05 10:21:30;;;;;;;2.57;1.50;;;7.10;99.90;;;;;;5046496;28;20405;-73
2022/02/05 10:24:04;;;;;;;3.83;1.73;;;7.10;99.90;;;;;;5047270;28;20441;-74
2022/02/05 10:26:38;;;;;;;5.17;1.97;;;7.10;99.90;;;;;;5046109;28;20430;-76
2022/02/05 10:29:06;;;;;;;2.30;1.90;;;7.30;99.90;;;;;;5046552;28;20468;-74
2022/02/05 10:32:05;;;;;;;4.87;1.53;;;7.60;99.90;;;;;;5046603;28;20453;-73
2022/02/05 10:34:35;;;;;;;3.40;1.90;;;7.70;99.90;;;;;;5045833;28;20459;-73
2022/02/05 10:37:22;;;;;;;9.20;2.10;;;7.70;99.90;;;;;;5046020;28;20783;-76
2022/02/05 10:40:21;;;;;;;3.00;1.67;;;7.70;99.90;;;;;;5045994;28;21271;-73
2022/02/05 10:43:03;;;;;;;3.10;1.63;;;8.00;99.90;;;;;;5045179;28;20459;-74
2022/02/05 10:45:42;;;;;;;3.10;1.37;;;8.00;99.90;;;;;;5047337;28;20959;-74
2022/02/05 10:48:10;;;;;;;3.03;1.80;;;7.70;99.90;;;;;;5046735;28;20404;-74
2022/02/05 10:50:36;;;;;;;2.20;1.47;;;8.10;99.90;;;;;;5047002;28;20419;-72
2022/02/05 10:53:09;;;;;;;6.07;1.77;;;8.00;99.90;;;;;;5045500;28;21016;-75
2022/02/05 10:58:38;;;;;;;6.40;2.10;;;8.40;99.90;;;;;;5046134;28;20428;-75
2022/02/05 11:07:18;;;;;;;2.60;1.83;;;8.90;99.90;;;;;;5047457;28;20942;-73
2022/02/05 11:09:56;;;;;;;3.70;1.50;;;9.00;99.90;;;;;;5047620;28;20409;-74
2022/02/05 11:20:27;;;;;;;3.43;1.60;;;11.60;98.70;;;;;;5046099;28;20403;-73
2022/02/05 11:23:07;;;;;;;2.50;1.57;;;13.10;97.10;;;;;;5045634;28;20404;-73
2022/02/05 11:25:39;;;;;;;2.67;1.30;;;14.10;94.00;;;;;;5027235;28;20207;-72
2022/02/05 11:28:07;;;;;;;1.97;1.23;;;14.50;92.60;;;;;;5045518;28;20404;-72
2022/02/05 11:30:48;;;;;;;2.33;1.40;;;15.20;90.60;;;;;;5027687;28;20459;-74
2022/02/05 11:33:23;;;;;;;4.80;1.37;;;15.50;85.90;;;;;;5027157;28;20458;-74
2022/02/05 11:38:31;;;;;;;5.10;1.40;;;15.20;83.60;;;;;;5045393;28;20417;-75
2022/02/05 11:40:58;;;;;;;5.13;1.10;;;15.10;81.00;;;;;;5045051;28;20410;-73
2022/02/05 11:43:45;;;;;;;5.13;1.57;;;15.00;80.60;;;;;;5045132;28;20420;-73
2022/02/05 11:46:18;;;;;;;2.40;1.30;;;14.70;82.90;;;;;;5046209;28;20443;-75
2022/02/05 11:48:59;;;;;;;3.97;1.57;;;15.90;79.50;;;;;;5046772;28;20404;-73
2022/02/05 11:51:31;;;;;;;3.43;1.47;;;16.60;78.60;;;;;;5045883;28;20404;-74
2022/02/05 11:53:57;;;;;;;2.50;1.03;;;16.10;77.00;;;;;;5045791;28;20524;-73
2022/02/05 11:59:24;;;;;;;3.00;1.30;;;16.80;73.10;;;;;;5034380;28;20817;-73
2022/02/05 12:01:50;;;;;;;2.53;1.30;;;17.70;72.00;;;;;;5044856;28;20412;-74
2022/02/05 12:04:21;;;;;;;2.70;1.27;;;18.70;70.40;;;;;;5044767;28;20471;-73
2022/02/05 12:06:57;;;;;;;2.87;1.40;;;17.40;68.40;;;;;;5044890;28;20453;-72
2022/02/05 12:09:41;;;;;;;2.53;1.20;;;15.40;72.80;;;;;;5044997;28;20405;-74
2022/02/05 12:12:36;;;;;;;2.03;1.37;;;13.90;75.90;;;;;;5045209;28;20753;-73
2022/02/05 12:15:17;;;;;;;3.17;0.97;;;13.60;76.30;;;;;;5044995;28;20924;-73
2022/02/05 12:20:29;;;;;;;4.23;1.70;;;14.30;75.30;;;;;;5044827;28;20385;-73
2022/02/05 12:23:17;;;;;;;4.73;1.07;;;14.90;73.70;;;;;;5044743;28;20916;-72
2022/02/05 12:25:58;;;;;;;2.17;1.30;;;14.40;74.00;;;;;;5044843;28;20432;-73
2022/02/05 12:28:34;;;;;;;1.27;0.73;;;14.60;72.60;;;;;;5044578;28;20421;-73
2022/02/05 12:31:05;;;;;;;3.00;1.03;;;14.10;72.40;;;;;;5044735;28;20414;-75
2022/02/05 12:33:51;;;;;;;5.17;1.37;;;14.20;74.30;;;;;;5044693;28;20487;-74
2022/02/05 12:36:39;;;;;;;8.63;4.40;;;14.70;71.70;;;;;;5044339;28;20440;-74
2022/02/05 12:39:10;;;;;;;3.23;1.67;;;15.50;71.20;;;;;;5044659;28;20909;-73
2022/02/05 12:41:48;;;;;;;2.57;1.47;;;16.00;69.90;;;;;;5044058;28;20404;-73
2022/02/05 12:44:14;;;;;;;2.83;1.43;;;16.40;70.10;;;;;;5026258;28;20511;-74
2022/02/05 12:46:46;;;;;;;4.43;1.30;;;16.50;67.90;;;;;;5044461;28;20731;-73
2022/02/05 12:49:26;;;;;;;2.07;1.13;;;17.70;68.20;;;;;;5044150;28;20405;-72
2022/02/05 12:51:53;;;;;;;3.10;1.20;;;17.90;65.80;;;;;;5044574;28;20420;-74
2022/02/05 12:54:26;;;;;;;2.67;1.30;;;18.10;63.70;;;;;;5044266;28;20518;-75
2022/02/05 12:56:54;;;;;;;3.57;1.00;;;18.40;65.10;;;;;;5048556;28;20768;-74
2022/02/05 12:59:27;;;;;;;1.73;0.90;;;18.00;62.60;;;;;;5048818;28;21458;-74
2022/02/05 13:02:05;;;;;;;2.43;0.90;;;17.20;65.20;;;;;;5030243;28;20420;-74
2022/02/05 13:04:38;;;;;;;3.27;1.00;;;16.00;65.50;;;;;;5048595;28;20433;-73
2022/02/05 13:07:04;;;;;;;2.77;1.50;;;15.50;66.70;;;;;;5048623;28;20953;-74
2022/02/05 13:09:32;;;;;;;2.27;1.20;;;15.50;67.50;;;;;;5048068;28;20420;-74
2022/02/05 13:12:02;;;;;;;2.03;1.43;;;15.70;67.30;;;;;;5050565;28;20587;-73
2022/02/05 13:14:39;;;;;;;3.77;1.20;;;15.30;68.90;;;;;;5050449;28;20524;-74
2022/02/05 13:17:10;;;;;;;4.70;1.43;;;15.20;66.70;;;;;;5050104;28;20495;-76
2022/02/05 13:19:56;;;;;;;4.10;1.57;;;14.60;68.40;;;;;;5050102;28;20435;-73
2022/02/05 13:28:08;;;;;;;3.13;1.30;;;15.40;67.60;;;;;;5050085;28;20424;-73
2022/02/05 13:36:01;;;;;;;2.90;1.47;;;15.50;65.90;;;;;;5049995;28;20981;-73
2022/02/05 13:38:31;;;;;;;2.00;1.00;;;14.90;66.90;;;;;;5049495;28;20412;-74
2022/02/05 13:41:02;;;;;;;3.43;1.30;;;15.10;68.80;;;;;;5049471;28;20408;-73
2022/02/05 13:43:40;;;;;;;2.80;1.30;;;16.70;65.80;;;;;;5049410;28;20416;-73
2022/02/05 13:46:13;;;;;;;1.67;1.10;;;16.20;63.80;;;;;;5049317;28;20451;-74
2022/02/05 13:48:39;;;;;;;3.67;1.60;;;16.10;65.60;;;;;;5049323;28;20814;-74
2022/02/05 13:51:09;;;;;;;2.73;1.10;;;15.80;65.20;;;;;;5047885;28;20488;-74
2022/02/05 13:53:48;;;;;;;4.57;1.63;;;14.90;66.60;;;;;;5047683;28;20208;-73
2022/02/05 13:56:13;;;;;;;5.30;1.37;;;13.30;68.80;;;;;;5047294;28;20450;-73
2022/02/05 13:58:40;;;;;;;2.00;1.27;;;12.70;72.40;;;;;;5047675;28;20969;-73
2022/02/05 14:01:06;;;;;;;3.93;1.10;;;13.40;72.70;;;;;;5047789;28;20185;-75
2022/02/05 14:03:40;;;;;;;2.53;1.40;;;13.00;73.20;;;;;;5047276;28;20421;-72
2022/02/05 14:06:14;;;;;;;5.87;1.20;;;12.70;73.60;;;;;;5047612;28;20771;-75
2022/02/05 14:08:45;;;;;;;5.70;1.60;;;12.60;74.30;;;;;;5046574;28;20782;-75
2022/02/05 14:11:25;;;;;;;4.10;1.30;;;12.00;76.30;;;;;;5047261;28;20409;-73
2022/02/05 14:14:00;;;;;;;2.30;1.37;;;11.60;77.90;;;;;;5046809;28;20456;-73
2022/02/05 14:16:38;;;;;;;4.33;1.70;;;11.30;80.40;;;;;;5047073;28;21517;-76
2022/02/05 14:19:06;;;;;;;2.30;1.07;;;11.00;81.80;;;;;;5046421;28;20393;-77
2022/02/05 14:21:33;;;;;;;5.77;1.40;;;10.70;81.80;;;;;;5046924;28;20774;-72
2022/02/05 14:23:58;;;;;;;1.83;1.20;;;10.50;84.20;;;;;;5046594;28;20504;-74
2022/02/05 14:26:31;;;;;;;3.80;1.70;;;10.20;84.60;;;;;;5046364;28;20517;-74
2022/02/05 14:28:58;;;;;;;4.03;1.93;;;10.10;86.30;;;;;;5046537;28;20209;-73
2022/02/05 14:31:33;;;;;;;3.20;1.40;;;10.10;86.80;;;;;;5046420;28;20412;-73
2022/02/05 14:42:09;;;;;;;5.00;1.50;;;10.40;85.70;;;;;;5046539;28;20785;-73
2022/02/05 14:44:35;;;;;;;2.37;1.20;;;10.40;85.40;;;;;;5046177;28;20445;-73
2022/02/05 14:47:02;;;;;;;1.73;1.07;;;10.30;87.20;;;;;;5046001;28;20422;-73
2022/02/05 14:49:28;;;;;;;2.93;1.13;;;10.00;86.30;;;;;;5046267;28;20409;-73
2022/02/05 14:51:56;;;;;;;3.80;1.27;;;9.80;87.90;;;;;;5046789;28;20409;-74
2022/02/05 14:54:22;;;;;;;2.70;1.50;;;9.60;88.30;;;;;;5045817;28;20718;-74
2022/02/05 14:56:49;;;;;;;3.00;1.40;;;9.70;89.60;;;;;;5055038;22;20518;-72
2022/02/05 14:59:15;;;;;;;2.50;1.43;;;9.80;87.90;;;;;;5025734;28;20439;-73
2022/02/05 15:01:40;;;;;;;0.83;0.80;;;9.50;87.80;;;;;;5025692;28;20414;-71
2022/02/05 15:04:06;;;;;;;1.60;1.00;;;9.70;87.40;;;;;;5025703;28;20406;-73
2022/02/05 15:06:34;;;;;;;1.87;1.37;;;9.60;86.90;;;;;;5025278;28;20199;-72
2022/02/05 15:09:02;;;;;;;2.73;1.03;;;9.40;88.50;;;;;;5025599;28;20208;-73
2022/02/05 15:11:29;;;;;;;2.57;1.00;;;9.30;88.60;;;;;;5015026;28;21085;-71
2022/02/05 15:13:58;;;;;;;1.30;1.20;;;9.30;89.70;;;;;;5025153;28;20483;-73
2022/02/05 15:16:25;;;;;;;1.63;1.23;;;9.50;89.70;;;;;;5025148;28;20467;-72
2022/02/05 15:18:56;;;;;;;4.77;1.47;;;9.30;89.50;;;;;;5013997;28;20414;-73
2022/02/05 15:21:29;;;;;;;3.10;1.20;;;9.20;90.00;;;;;;5024977;28;20905;-70
2022/02/05 15:23:56;;;;;;;2.00;1.23;;;9.20;90.10;;;;;;5025243;28;20414;-71
2022/02/05 15:26:25;;;;;;;2.10;1.00;;;9.40;90.60;;;;;;5024775;28;20440;-72
2022/02/05 15:28:50;;;;;;;3.03;1.53;;;9.40;90.20;;;;;;5025319;28;20444;-72
2022/02/05 15:31:17;;;;;;;2.00;1.30;;;9.30;90.80;;;;;;5024993;28;20780;-70
2022/02/05 15:33:44;;;;;;;3.17;1.07;;;9.00;90.80;;;;;;5025125;28;20595;-71
2022/02/05 15:36:13;;;;;;;4.93;1.40;;;9.10;90.90;;;;;;5024834;28;20439;-72
2022/02/05 15:38:49;;;;;;;2.60;1.30;;;9.40;91.10;;;;;;5025258;28;20410;-70
2022/02/05 15:43:58;;;;;;;2.40;1.40;;;9.20;90.70;;;;;;5024994;28;20779;-72
2022/02/05 15:46:24;;;;;;;2.30;1.10;;;8.90;91.80;;;;;;5014794;28;20446;-71
2022/02/05 15:48:51;;;;;;;3.50;1.23;;;8.90;91.80;;;;;;5025303;28;20581;-69
2022/02/05 15:51:17;;;;;;;1.70;1.40;;;8.90;91.60;;;;;;5024665;28;20182;-71
2022/02/05 15:53:57;;;;;;;3.03;1.20;;;9.00;92.00;;;;;;5024741;28;20506;-71
2022/02/05 15:56:40;;;;;;;2.03;1.17;;;8.80;92.60;;;;;;5024494;28;20459;-70
2022/02/05 15:59:09;;;;;;;1.83;1.30;;;8.80;92.50;;;;;;5024702;28;20431;-72
2022/02/05 16:01:35;;;;;;;2.20;1.27;;;8.80;93.10;;;;;;5024776;28;20413;-71
2022/02/05 16:04:00;;;;;;;2.60;1.47;;;8.60;92.70;;;;;;5023847;28;20605;-70
2022/02/05 16:06:27;;;;;;;5.00;1.50;;;8.60;93.30;;;;;;5024445;28;20244;-71
2022/02/05 16:08:53;;;;;;;2.73;1.37;;;8.70;93.50;;;;;;5024648;28;20243;-70
2022/02/05 16:11:19;;;;;;;3.53;1.70;;;8.60;93.40;;;;;;5024422;28;20799;-71
2022/02/05 16:13:45;;;;;;;2.47;1.63;;;8.60;94.10;;;;;;5024357;28;20301;-70